This is the latest recevied weather packets stored in our database for station/object SP6W-10. If no packets are shown the sender has not sent any weather packets the latest 10 day(s).
| Time | Temp. | Humidity | Pressure | Rain* | Wind** | Luminosity | Snow |
|---|---|---|---|---|---|---|---|
| 1788139837 | 83° F | 34% | 761.5 mmHg | - | - | - | - |
| 1788132637 | 84° F | 34% | 761.8 mmHg | - | - | - | - |
| 1788130837 | 84° F | 34% | 761.8 mmHg | - | - | - | - |
| 1788129036 | 84° F | 34% | 761.8 mmHg | - | - | - | - |
| 1788100241 | 89° F | 31% | 760.9 mmHg | - | - | - | - |
| 1788087639 | 85° F | 33% | 761.1 mmHg | - | - | - | - |
| 1788085839 | 84° F | 34% | 761.2 mmHg | - | - | - | - |
| 1788084041 | 83° F | 35% | 761.2 mmHg | - | - | - | - |
| 1788071440 | 82° F | 35% | 761.5 mmHg | - | - | - | - |
| 1788069638 | 81° F | 35% | 761.6 mmHg | - | - | - | - |
| 1788048041 | 83° F | 32% | 762.3 mmHg | - | - | - | - |
| 1788012041 | 91° F | 26% | 761.8 mmHg | - | - | - | - |
| 1788008441 | 89° F | 28% | 762 mmHg | - | - | - | - |
| 1788006647 | 88° F | 28% | 761.8 mmHg | - | - | - | - |
| 1787878832 | 81° F | 31% | 763.4 mmHg | - | - | - | - |
| 1787862635 | 83° F | 31% | 765 mmHg | - | - | - | - |
| 1787860835 | 81° F | 32% | 764.9 mmHg | - | - | - | - |
| 1787859051 | 82° F | 32% | 764.9 mmHg | - | - | - | - |
| 1787857235 | 82° F | 32% | 764.8 mmHg | - | - | - | - |
| 1787687003 | 76° F | 37% | 765.2 mmHg | - | - | - | - |
| 1787684662 | 77° F | 37% | 765 mmHg | - | - | - | - |
| 1787680890 | 77° F | 36% | 764.9 mmHg | - | - | - | - |
| 1787680627 | 77° F | 36% | 764.9 mmHg | - | - | - | - |
| 1787678617 | 77° F | 37% | 764.8 mmHg | - | - | - | - |
| 1787674711 | 78° F | 36% | 764.8 mmHg | - | - | - | - |
* Rain since midnight (hover to see other rain measurements)
** Current wind speed in m/s (hover to see current wind gust speed)